Time;durP1;ratioP1;P1;durP2;ratioP2;P2;SDS_P1;SDS_P2;PMS_P1;PMS_P2;Temp;Humidity;BMP_temperature;BMP_pressure;BME280_temperature;BME280_humidity;BME280_pressure;Samples;Min_cycle;Max_cycle;Signal;HPM_P1;HPM_P2
2021/04/03 00:00:58;;;;;;;138.77;86.43;;;308.00;2304.00;;;;;;4997113;28;20049;-80
2021/04/03 00:03:34;;;;;;;109.07;74.95;;;308.00;2304.00;;;;;;4996292;28;20068;-82
2021/04/03 00:06:04;;;;;;;106.13;66.20;;;308.00;2304.00;;;;;;5013265;28;20116;-83
2021/04/03 00:08:34;;;;;;;80.45;52.03;;;307.90;2304.00;;;;;;4996089;28;20053;-81
2021/04/03 00:11:06;;;;;;;70.60;46.22;;;307.90;2304.00;;;;;;4996364;28;20032;-83
2021/04/03 00:13:35;;;;;;;41.97;27.52;;;307.80;2304.00;;;;;;4996136;28;20120;-82
2021/04/03 00:16:10;;;;;;;54.70;35.15;;;307.80;2304.00;;;;;;5012628;28;20383;-82
2021/04/03 00:18:37;;;;;;;74.30;44.33;;;307.70;2304.00;;;;;;4995785;28;20120;-84
2021/04/03 00:21:04;;;;;;;96.55;55.63;;;307.70;2304.00;;;;;;4979751;28;20030;-83
2021/04/03 00:23:30;;;;;;;127.32;71.47;;;307.70;2304.00;;;;;;4994574;28;20046;-81
2021/04/03 00:25:56;;;;;;;126.90;73.20;;;307.80;2304.00;;;;;;4996082;28;20101;-83
2021/04/03 00:28:35;;;;;;;83.25;54.17;;;307.70;2304.00;;;;;;4994717;28;20022;-83
2021/04/03 00:31:03;;;;;;;52.88;33.67;;;307.70;2304.00;;;;;;4998420;28;20706;-83
2021/04/03 00:33:30;;;;;;;43.92;28.30;;;307.60;2304.00;;;;;;5000010;28;20060;-81
2021/04/03 00:35:56;;;;;;;42.13;28.83;;;282.50;2278.40;;;;;;4999625;28;20021;-82
2021/04/03 00:38:25;;;;;;;38.67;29.23;;;282.40;2278.40;;;;;;5000158;28;20026;-84
2021/04/03 00:40:51;;;;;;;47.38;29.90;;;282.50;2278.40;;;;;;5000117;28;20021;-83
2021/04/03 00:43:27;;;;;;;44.53;29.77;;;282.50;2278.40;;;;;;4998585;28;20121;-81
2021/04/03 00:45:56;;;;;;;55.83;34.88;;;307.20;2304.00;;;;;;4980725;28;20493;-83
2021/04/03 00:48:31;;;;;;;172.45;81.78;;;307.20;2304.00;;;;;;4996532;28;20437;-81
2021/04/03 00:50:57;;;;;;;125.53;60.65;;;307.20;2304.00;;;;;;4980129;28;20478;-83
2021/04/03 00:53:31;;;;;;;116.80;60.88;;;307.30;2304.00;;;;;;4980141;28;20027;-81
2021/04/03 00:56:01;;;;;;;118.43;68.68;;;282.40;2278.40;;;;;;4996769;28;20019;-82
2021/04/03 00:58:33;;;;;;;90.55;56.25;;;282.50;2278.40;;;;;;4980696;28;20382;-83
2021/04/03 01:01:59;;;;;;;76.00;50.65;;;282.50;2278.40;;;;;;4996565;28;20022;-83
2021/04/03 01:04:21;;;;;;;74.63;47.47;;;282.40;2278.40;;;;;;4996334;28;20482;-82
2021/04/03 01:06:53;;;;;;;64.38;44.58;;;307.20;2304.00;;;;;;4980447;28;20027;-82
2021/04/03 01:09:23;;;;;;;80.95;55.25;;;282.50;2278.40;;;;;;4981157;28;20034;-81
2021/04/03 01:12:10;;;;;;;69.00;44.90;;;282.30;2278.40;;;;;;4995993;28;20145;-84
2021/04/03 01:14:56;;;;;;;82.40;52.78;;;282.40;2278.40;;;;;;4994161;28;20490;-84
2021/04/03 01:18:58;;;;;;;112.50;72.88;;;282.50;2278.40;;;;;;4979837;28;20080;-83
2021/04/03 01:21:36;;;;;;;80.50;51.00;;;282.30;2278.40;;;;;;4955844;29;20036;-82
2021/04/03 01:24:41;;;;;;;96.03;59.33;;;282.30;2278.40;;;;;;4956483;28;20506;-83
2021/04/03 01:27:25;;;;;;;50.30;30.95;;;282.30;2278.40;;;;;;4998396;28;20033;-81
2021/04/03 01:30:14;;;;;;;37.72;25.50;;;282.00;2278.40;;;;;;4998168;28;20026;-83
2021/04/03 01:33:40;;;;;;;42.15;27.58;;;282.00;2278.40;;;;;;4987100;28;20129;-80
2021/04/03 01:37:31;;;;;;;37.55;25.60;;;282.20;2278.40;;;;;;4990629;28;20058;-82
2021/04/03 01:39:41;;;;;;;40.72;27.02;;;282.00;2278.40;;;;;;4987839;28;20117;-83
2021/04/03 01:42:51;;;;;;;34.35;23.48;;;281.80;2278.40;;;;;;4997994;28;20029;-83
2021/04/03 01:46:17;;;;;;;;;;;;;;;;;;;;;
2021/04/03 01:49:06;;;;;;;38.15;25.30;;;281.90;2278.40;;;;;;4980356;28;20030;-81
2021/04/03 01:52:01;;;;;;;35.25;23.77;;;282.10;2278.40;;;;;;4998439;28;20026;-80
2021/04/03 01:54:54;;;;;;;37.95;24.17;;;282.00;2278.40;;;;;;4989661;28;20040;-83
2021/04/03 01:58:12;;;;;;;;;;;;;;;;;;;;;
2021/04/03 02:01:00;;;;;;;36.92;21.90;;;282.10;2278.40;;;;;;5015752;28;20392;-79
2021/04/03 02:03:48;;;;;;;33.13;20.92;;;282.10;2278.40;;;;;;4998402;28;20535;-81
2021/04/03 02:06:19;;;;;;;36.05;20.80;;;282.10;2278.40;;;;;;4998426;28;20041;-82
2021/04/03 02:12:50;;;;;;;34.75;21.38;;;282.30;2278.40;;;;;;5011890;28;20424;-83
2021/04/03 02:15:09;;;;;;;33.25;22.13;;;282.10;2278.40;;;;;;5007212;28;20034;-82
2021/04/03 02:17:40;;;;;;;35.85;23.67;;;281.70;2278.40;;;;;;4998337;28;20050;-78
2021/04/03 02:20:12;;;;;;;37.15;24.05;;;281.80;2278.40;;;;;;4998952;28;20488;-82
2021/04/03 02:22:45;;;;;;;39.00;23.80;;;281.70;2278.40;;;;;;4999292;28;20029;-82
2021/04/03 02:25:25;;;;;;;36.95;25.58;;;281.80;2278.40;;;;;;4999654;28;20349;-82
2021/04/03 02:28:19;;;;;;;39.97;27.02;;;281.60;2278.40;;;;;;4998510;28;20559;-80
2021/04/03 02:30:51;;;;;;;38.83;26.30;;;256.90;2252.80;;;;;;4998070;28;20115;-78
2021/04/03 02:33:47;;;;;;;38.95;26.25;;;281.60;2278.40;;;;;;4998014;28;20026;-82
2021/04/03 02:36:37;;;;;;;37.03;23.73;;;281.70;2278.40;;;;;;4997534;28;20026;-82
2021/04/03 02:40:04;;;;;;;;;;;;;;;;;;;;;
2021/04/03 02:48:03;;;;;;;36.83;24.92;;;281.70;2278.40;;;;;;4921240;29;20032;-84
2021/04/03 02:50:58;;;;;;;;;;;;;;;;;;;;;
2021/04/03 02:57:38;;;;;;;31.52;18.52;;;281.60;2278.40;;;;;;4934475;29;20075;-82
2021/04/03 03:03:25;;;;;;;22.63;15.43;;;281.60;2278.40;;;;;;4983367;28;20022;-82
2021/04/03 03:05:58;;;;;;;22.38;16.88;;;281.60;2278.40;;;;;;5001321;28;20520;-78
2021/04/03 03:08:27;;;;;;;25.98;15.70;;;281.70;2278.40;;;;;;4997548;28;20034;-80
2021/04/03 03:10:55;;;;;;;27.95;18.95;;;281.80;2278.40;;;;;;4997002;28;20030;-77
2021/04/03 03:13:22;;;;;;;31.40;20.02;;;281.80;2278.40;;;;;;4996930;28;20069;-79
2021/04/03 03:15:48;;;;;;;41.92;23.25;;;281.90;2278.40;;;;;;4997507;28;20022;-78
2021/04/03 03:18:16;;;;;;;31.42;19.70;;;281.90;2278.40;;;;;;4998155;28;20061;-80
2021/04/03 03:20:43;;;;;;;27.23;18.95;;;281.70;2278.40;;;;;;4997957;28;20030;-76
2021/04/03 03:23:11;;;;;;;30.48;19.83;;;281.70;2278.40;;;;;;4996820;28;20030;-80
2021/04/03 03:25:39;;;;;;;29.40;19.27;;;282.20;2278.40;;;;;;4998464;28;20029;-80
2021/04/03 03:28:05;;;;;;;27.13;17.88;;;281.60;2278.40;;;;;;4996677;28;20033;-80
2021/04/03 03:30:52;;;;;;;36.08;21.40;;;282.10;2278.40;;;;;;4997586;28;20065;-79
2021/04/03 03:33:18;;;;;;;49.22;33.78;;;281.70;2278.40;;;;;;4997408;28;20123;-81
2021/04/03 03:35:44;;;;;;;49.33;32.60;;;281.70;2278.40;;;;;;4997075;28;20129;-78
2021/04/03 03:38:11;;;;;;;44.70;29.48;;;281.80;2278.40;;;;;;4996649;28;20030;-78
2021/04/03 03:40:37;;;;;;;36.38;25.08;;;281.90;2278.40;;;;;;4996924;28;20026;-81
2021/04/03 03:43:04;;;;;;;32.25;22.05;;;282.00;2278.40;;;;;;4996876;28;20124;-80
2021/04/03 03:45:30;;;;;;;33.65;22.13;;;282.10;2278.40;;;;;;4996468;28;20113;-79
2021/04/03 03:47:56;;;;;;;34.35;21.98;;;282.10;2278.40;;;;;;4996765;28;20026;-79
2021/04/03 03:50:22;;;;;;;34.88;24.42;;;282.20;2278.40;;;;;;4997257;28;20119;-79
2021/04/03 03:52:49;;;;;;;43.97;29.77;;;282.10;2278.40;;;;;;4995160;28;20044;-77
2021/04/03 03:55:15;;;;;;;47.15;33.17;;;282.10;2278.40;;;;;;4991763;28;20030;-79
2021/04/03 03:57:41;;;;;;;50.97;32.55;;;282.20;2278.40;;;;;;4976398;28;20476;-79
2021/04/03 04:00:08;;;;;;;46.50;34.10;;;282.20;2278.40;;;;;;4975669;28;20026;-80
2021/04/03 04:02:34;;;;;;;41.22;28.58;;;282.00;2278.40;;;;;;4977209;28;20767;-79
2021/04/03 04:04:59;;;;;;;37.40;26.52;;;281.70;2278.40;;;;;;4977535;28;20034;-78
2021/04/03 04:07:26;;;;;;;34.78;24.73;;;281.60;2278.40;;;;;;4976591;28;20033;-77
2021/04/03 04:09:52;;;;;;;35.80;24.35;;;281.80;2278.40;;;;;;4976797;28;20023;-78
2021/04/03 04:12:18;;;;;;;33.05;24.48;;;282.00;2278.40;;;;;;4976570;28;20041;-79
2021/04/03 04:14:47;;;;;;;35.92;23.80;;;282.00;2278.40;;;;;;4977335;28;20050;-79
2021/04/03 04:17:13;;;;;;;31.73;20.92;;;281.80;2278.40;;;;;;4977025;28;20030;-77
2021/04/03 04:19:42;;;;;;;28.77;18.98;;;281.60;2278.40;;;;;;4976788;28;20054;-80
2021/04/03 04:22:08;;;;;;;27.20;19.02;;;281.70;2278.40;;;;;;4976651;28;20033;-78
2021/04/03 04:24:34;;;;;;;27.80;17.77;;;256.80;2252.80;;;;;;4995100;28;20055;-78
2021/04/03 04:27:00;;;;;;;21.38;15.75;;;256.90;2252.80;;;;;;4995534;28;20037;-78
2021/04/03 04:29:26;;;;;;;22.95;15.40;;;281.70;2278.40;;;;;;4993773;28;20026;-75
2021/04/03 04:31:52;;;;;;;25.67;16.02;;;256.90;2252.80;;;;;;4995945;28;20038;-77
2021/04/03 04:34:18;;;;;;;27.63;16.83;;;256.90;2252.80;;;;;;4995165;28;20026;-78
2021/04/03 04:36:44;;;;;;;22.27;15.75;;;256.90;2252.80;;;;;;4996053;28;20037;-75
2021/04/03 04:39:10;;;;;;;25.58;15.63;;;256.90;2252.80;;;;;;4996258;28;20034;-76
2021/04/03 04:41:36;;;;;;;24.10;16.98;;;281.70;2278.40;;;;;;4996033;28;20057;-78
2021/04/03 04:44:03;;;;;;;25.85;17.33;;;281.70;2278.40;;;;;;4996081;28;20030;-77
2021/04/03 04:46:29;;;;;;;23.27;15.95;;;281.80;2278.40;;;;;;4996174;28;20104;-78
2021/04/03 04:48:55;;;;;;;20.67;14.60;;;281.90;2278.40;;;;;;4995840;28;20458;-78
2021/04/03 04:51:21;;;;;;;21.60;15.65;;;282.00;2278.40;;;;;;4996180;28;20124;-78
2021/04/03 04:53:47;;;;;;;24.75;17.38;;;282.20;2278.40;;;;;;4996193;28;20025;-77
2021/04/03 04:56:13;;;;;;;33.10;22.27;;;282.20;2278.40;;;;;;4995819;28;20084;-80
2021/04/03 04:58:45;;;;;;;33.58;20.98;;;282.20;2278.40;;;;;;4996029;28;20030;-78
2021/04/03 05:01:11;;;;;;;32.57;23.50;;;282.20;2278.40;;;;;;4996045;28;20072;-78
2021/04/03 05:03:37;;;;;;;26.83;20.17;;;282.20;2278.40;;;;;;4995965;28;20112;-78
2021/04/03 05:06:03;;;;;;;26.88;18.15;;;282.20;2278.40;;;;;;4996001;28;20052;-79
2021/04/03 05:08:29;;;;;;;23.23;17.10;;;282.30;2278.40;;;;;;4995780;28;20030;-79
2021/04/03 05:10:55;;;;;;;28.63;17.35;;;282.20;2278.40;;;;;;4995873;28;20477;-79
2021/04/03 05:13:21;;;;;;;23.80;18.42;;;307.40;2304.00;;;;;;4995616;28;20068;-76
2021/04/03 05:15:52;;;;;;;29.90;23.88;;;282.40;2278.40;;;;;;4996338;28;20026;-80
2021/04/03 05:18:18;;;;;;;37.05;27.08;;;282.40;2278.40;;;;;;5017024;28;20030;-78
2021/04/03 05:20:47;;;;;;;54.35;40.13;;;282.50;2278.40;;;;;;4999585;28;20030;-78
2021/04/03 05:23:17;;;;;;;69.90;49.15;;;282.40;2278.40;;;;;;4999128;28;20029;-80
2021/04/03 05:25:46;;;;;;;64.00;44.85;;;282.40;2278.40;;;;;;4998156;28;20037;-79
2021/04/03 05:28:13;;;;;;;55.28;42.17;;;282.30;2278.40;;;;;;4999791;28;20057;-78
2021/04/03 05:30:46;;;;;;;59.20;41.67;;;282.30;2278.40;;;;;;4998385;28;20034;-78
2021/04/03 05:33:11;;;;;;;44.30;33.63;;;282.40;2278.40;;;;;;4999321;28;20120;-79
2021/04/03 05:35:38;;;;;;;41.65;32.92;;;282.50;2278.40;;;;;;4999329;28;20065;-79
2021/04/03 05:38:07;;;;;;;48.40;37.38;;;282.50;2278.40;;;;;;4998947;28;20042;-78
2021/04/03 05:40:33;;;;;;;91.10;71.55;;;282.50;2278.40;;;;;;4999761;28;20061;-79
2021/04/03 05:43:03;;;;;;;86.97;61.65;;;282.50;2278.40;;;;;;4999793;28;20084;-80
2021/04/03 05:45:31;;;;;;;87.38;62.50;;;282.50;2278.40;;;;;;5000246;28;20478;-78
2021/04/03 05:47:58;;;;;;;87.68;61.65;;;282.40;2278.40;;;;;;5000007;28;20523;-80
2021/04/03 05:50:25;;;;;;;82.60;58.25;;;282.30;2278.40;;;;;;4998796;28;20034;-78
2021/04/03 05:52:51;;;;;;;76.05;52.88;;;282.40;2278.40;;;;;;4998905;28;20124;-77
2021/04/03 05:55:21;;;;;;;71.72;52.83;;;282.50;2278.40;;;;;;4997786;28;20470;-79
2021/04/03 05:57:47;;;;;;;73.07;53.92;;;282.40;2278.40;;;;;;4999005;28;20022;-78
2021/04/03 06:00:16;;;;;;;77.07;60.50;;;282.50;2278.40;;;;;;4997740;28;20033;-80
2021/04/03 06:02:42;;;;;;;72.10;54.35;;;282.40;2278.40;;;;;;4998788;28;20045;-81
2021/04/03 06:05:12;;;;;;;71.78;51.28;;;282.40;2278.40;;;;;;4998522;28;20026;-80
2021/04/03 06:07:40;;;;;;;58.50;43.95;;;282.40;2278.40;;;;;;4998705;28;20025;-80
2021/04/03 06:10:08;;;;;;;55.47;41.08;;;282.30;2278.40;;;;;;4998303;28;20026;-81
2021/04/03 06:12:44;;;;;;;52.60;40.17;;;282.30;2278.40;;;;;;4998248;28;20084;-80
2021/04/03 06:15:16;;;;;;;63.65;46.47;;;282.50;2278.40;;;;;;4998622;28;20124;-81
2021/04/03 06:17:44;;;;;;;57.20;44.63;;;307.20;2304.00;;;;;;4999061;28;20128;-80
2021/04/03 06:20:11;;;;;;;61.47;45.95;;;282.50;2278.40;;;;;;4998184;28;20036;-80
2021/04/03 06:22:57;;;;;;;62.17;47.97;;;307.20;2304.00;;;;;;4998368;28;20541;-79
2021/04/03 06:25:56;;;;;;;62.13;47.78;;;307.30;2304.00;;;;;;4998048;28;20029;-79
2021/04/03 06:28:46;;;;;;;62.13;49.05;;;307.30;2304.00;;;;;;4997958;28;20084;-79
2021/04/03 06:31:17;;;;;;;68.72;50.15;;;307.50;2304.00;;;;;;4998287;28;20057;-81
2021/04/03 06:33:49;;;;;;;69.90;54.63;;;307.50;2304.00;;;;;;4998285;28;20037;-81
2021/04/03 06:36:19;;;;;;;67.15;48.78;;;307.60;2304.00;;;;;;4997904;28;20121;-79
2021/04/03 06:43:24;;;;;;;69.05;49.03;;;307.80;2304.00;;;;;;5015604;28;20037;-81
2021/04/03 06:45:31;;;;;;;61.40;44.95;;;307.90;2304.00;;;;;;4994171;28;20428;-82
2021/04/03 06:48:05;;;;;;;55.30;39.85;;;308.00;2304.00;;;;;;4997734;28;20046;-82
2021/04/03 06:50:40;;;;;;;64.65;44.05;;;308.00;2304.00;;;;;;4998005;28;20026;-80
2021/04/03 06:53:08;;;;;;;63.92;46.17;;;308.00;2304.00;;;;;;4997033;28;20115;-81
2021/04/03 06:55:35;;;;;;;61.10;43.10;;;308.10;2304.00;;;;;;4997522;28;20121;-82
2021/04/03 06:58:03;;;;;;;56.20;42.50;;;308.10;2304.00;;;;;;4996909;28;20026;-78
2021/04/03 07:00:30;;;;;;;112.95;72.97;;;308.10;2304.00;;;;;;4997069;28;20034;-81
2021/04/03 07:03:08;;;;;;;87.95;62.00;;;332.80;2329.60;;;;;;4997603;28;20468;-81
2021/04/03 07:05:36;;;;;;;91.20;63.72;;;332.90;2329.60;;;;;;4997626;28;20037;-81
2021/04/03 07:08:04;;;;;;;83.95;59.40;;;333.00;2329.60;;;;;;4997213;28;20030;-81
2021/04/03 07:10:31;;;;;;;81.30;61.10;;;333.10;2329.60;;;;;;4997541;28;20426;-83
2021/04/03 07:12:58;;;;;;;51.53;39.20;;;333.10;2329.60;;;;;;4997123;28;20037;-80
2021/04/03 07:15:25;;;;;;;43.03;35.55;;;333.30;2329.60;;;;;;4996928;28;20026;-82
2021/04/03 07:17:52;;;;;;;63.63;47.35;;;333.20;2329.60;;;;;;4997921;28;20124;-82
2021/04/03 07:20:30;;;;;;;54.42;42.58;;;333.40;2329.60;;;;;;4997248;28;20026;-76
2021/04/03 07:23:09;;;;;;;67.13;52.58;;;333.30;2329.60;;;;;;4995382;28;20025;-79
2021/04/03 07:25:44;;;;;;;69.50;52.22;;;333.40;2329.60;;;;;;5015150;28;20022;-77
2021/04/03 07:28:11;;;;;;;54.75;45.25;;;333.50;2329.60;;;;;;4995899;28;20030;-81
2021/04/03 07:30:40;;;;;;;61.95;47.30;;;333.60;2329.60;;;;;;4997041;28;20099;-82
2021/04/03 07:33:31;;;;;;;56.00;42.83;;;333.70;2329.60;;;;;;4996928;28;20030;-82
2021/04/03 07:36:05;;;;;;;54.60;43.67;;;333.70;2329.60;;;;;;5014220;28;20030;-80
2021/04/03 07:38:40;;;;;;;47.05;36.38;;;358.40;2329.60;;;;;;4997003;28;20041;-81
2021/04/03 07:41:16;;;;;;;49.55;38.70;;;358.50;2329.60;;;;;;4996261;28;20030;-80
2021/04/03 07:43:47;;;;;;;43.95;34.78;;;358.50;2329.60;;;;;;4996730;28;20030;-80
2021/04/03 07:46:25;;;;;;;38.60;31.95;;;358.70;2329.60;;;;;;4996837;28;20053;-82
2021/04/03 07:48:57;;;;;;;40.00;30.40;;;358.80;2329.60;;;;;;4996956;28;20030;-80
2021/04/03 07:51:23;;;;;;;31.27;26.47;;;358.90;2329.60;;;;;;4995937;28;20078;-81
2021/04/03 07:53:53;;;;;;;35.00;29.75;;;358.90;2329.60;;;;;;4997098;28;20433;-80
2021/04/03 07:56:22;;;;;;;25.75;20.58;;;358.90;2329.60;;;;;;4997340;28;20442;-81
2021/04/03 07:58:49;;;;;;;25.73;20.42;;;358.80;2329.60;;;;;;4996415;28;20021;-80
2021/04/03 08:01:15;;;;;;;23.98;18.58;;;358.90;2329.60;;;;;;4997179;28;20034;-80
2021/04/03 08:03:52;;;;;;;22.88;18.58;;;358.90;2329.60;;;;;;4996273;28;20041;-80
2021/04/03 08:06:18;;;;;;;23.80;18.40;;;358.90;2329.60;;;;;;4996780;28;20049;-81
2021/04/03 08:08:45;;;;;;;23.50;20.85;;;359.00;2329.60;;;;;;4996398;28;20125;-80
2021/04/03 08:11:18;;;;;;;20.27;16.15;;;384.00;2329.60;;;;;;4995126;28;20030;-81
2021/04/03 08:13:46;;;;;;;30.10;15.52;;;359.00;2329.60;;;;;;4996597;28;20088;-80
2021/04/03 08:16:14;;;;;;;22.40;16.13;;;359.10;2329.60;;;;;;4995829;28;20037;-83
2021/04/03 08:18:51;;;;;;;36.05;27.45;;;359.20;2329.60;;;;;;4996671;28;20056;-81
2021/04/03 08:21:18;;;;;;;43.75;34.45;;;359.20;2329.60;;;;;;4996585;28;20068;-80
2021/04/03 08:23:50;;;;;;;63.88;46.78;;;359.20;2329.60;;;;;;4996366;28;20472;-79
2021/04/03 08:26:17;;;;;;;54.28;42.75;;;359.10;2329.60;;;;;;4995560;28;20030;-83
2021/04/03 08:28:44;;;;;;;66.28;44.83;;;359.00;2329.60;;;;;;4996357;28;20030;-82
2021/04/03 08:31:24;;;;;;;60.17;41.50;;;359.10;2329.60;;;;;;4995851;28;20027;-78
2021/04/03 08:33:55;;;;;;;45.25;37.00;;;359.20;2329.60;;;;;;4995773;28;20061;-80
2021/04/03 08:36:24;;;;;;;46.20;35.83;;;359.20;2329.60;;;;;;4995352;28;20033;-79
2021/04/03 08:38:51;;;;;;;43.58;35.72;;;384.00;2329.60;;;;;;4995779;28;20421;-77
2021/04/03 08:41:19;;;;;;;45.08;36.38;;;384.10;2329.60;;;;;;4995827;28;20026;-78
2021/04/03 08:43:46;;;;;;;37.47;31.75;;;384.10;2329.60;;;;;;4997520;28;20092;-81
2021/04/03 08:46:15;;;;;;;40.85;32.03;;;384.10;2329.60;;;;;;4995609;28;20176;-78
2021/04/03 08:48:46;;;;;;;34.75;29.80;;;384.00;2329.60;;;;;;4996789;28;20382;-80
2021/04/03 08:51:13;;;;;;;29.52;23.92;;;384.00;2329.60;;;;;;4999830;28;20117;-82
2021/04/03 08:53:42;;;;;;;29.88;22.90;;;359.30;2329.60;;;;;;5004244;28;20113;-82
2021/04/03 08:56:10;;;;;;;51.05;35.72;;;359.20;2329.60;;;;;;5025925;28;20014;-79
2021/04/03 08:58:39;;;;;;;49.92;34.00;;;359.10;2329.60;;;;;;5011575;28;20022;-82
2021/04/03 09:01:05;;;;;;;52.20;36.67;;;359.00;2329.60;;;;;;5015322;28;20030;-83
2021/04/03 09:03:34;;;;;;;33.95;27.27;;;359.20;2329.60;;;;;;5009102;28;20030;-82
2021/04/03 09:06:00;;;;;;;31.30;25.20;;;359.00;2329.60;;;;;;5005341;28;20022;-84
2021/04/03 09:08:26;;;;;;;34.20;26.98;;;358.90;2329.60;;;;;;5005284;28;20035;-85
2021/04/03 09:10:58;;;;;;;41.80;30.13;;;358.90;2329.60;;;;;;5003177;28;20084;-84
2021/04/03 09:13:32;;;;;;;46.65;32.67;;;358.80;2329.60;;;;;;5018330;28;20486;-85
2021/04/03 09:16:14;;;;;;;40.25;28.55;;;358.80;2329.60;;;;;;5005643;28;20116;-84
2021/04/03 09:18:41;;;;;;;;;;;358.70;2329.60;;;;;;5001721;28;20026;-83
2021/04/03 09:21:07;;;;;;;57.80;35.67;;;358.80;2329.60;;;;;;5017477;28;19906;-83
2021/04/03 09:23:43;;;;;;;33.33;26.30;;;358.70;2329.60;;;;;;5003353;28;20059;-83
2021/04/03 09:26:09;;;;;;;38.75;27.33;;;358.60;2329.60;;;;;;5017028;28;20026;-86
2021/04/03 09:28:44;;;;;;;30.20;24.25;;;358.50;2329.60;;;;;;4998555;28;20120;-83
2021/04/03 09:31:16;;;;;;;29.95;25.10;;;333.60;2329.60;;;;;;4998413;28;20551;-85
2021/04/03 09:33:46;;;;;;;30.03;25.63;;;333.60;2329.60;;;;;;4999701;28;20038;-84
2021/04/03 09:36:20;;;;;;;47.45;34.40;;;333.50;2329.60;;;;;;4999719;28;20026;-84
2021/04/03 09:38:49;;;;;;;33.67;26.52;;;333.40;2329.60;;;;;;4999268;28;20551;-83
2021/04/03 09:41:31;;;;;;;35.70;28.42;;;333.30;2329.60;;;;;;4999423;28;20069;-86
2021/04/03 09:43:57;;;;;;;38.55;28.42;;;333.20;2329.60;;;;;;5016436;28;20032;-85
2021/04/03 09:46:26;;;;;;;34.42;29.48;;;333.00;2329.60;;;;;;4998805;28;20088;-85
2021/04/03 09:48:52;;;;;;;47.03;36.53;;;332.90;2329.60;;;;;;4998917;28;20485;-84
2021/04/03 09:51:22;;;;;;;42.28;34.88;;;332.90;2329.60;;;;;;4999088;28;20030;-83
2021/04/03 09:53:50;;;;;;;41.78;33.45;;;332.80;2329.60;;;;;;4998618;28;20060;-83
2021/04/03 09:56:17;;;;;;;36.17;30.67;;;308.10;2304.00;;;;;;4998748;28;20437;-85
2021/04/03 09:58:45;;;;;;;42.47;34.20;;;308.00;2304.00;;;;;;4998528;28;20060;-84
2021/04/03 10:01:11;;;;;;;30.88;27.02;;;307.90;2304.00;;;;;;4982866;28;20026;-84
2021/04/03 10:03:43;;;;;;;30.58;24.52;;;307.80;2304.00;;;;;;5015598;28;20034;-85
2021/04/03 10:06:12;;;;;;;31.63;25.52;;;307.60;2304.00;;;;;;4982369;28;20034;-84
2021/04/03 10:08:39;;;;;;;32.40;24.15;;;307.60;2304.00;;;;;;5015966;28;20548;-83
2021/04/03 10:11:07;;;;;;;29.58;24.20;;;307.60;2304.00;;;;;;4998791;28;20034;-86
2021/04/03 10:13:33;;;;;;;29.90;25.38;;;307.50;2304.00;;;;;;4998636;28;20034;-85
2021/04/03 10:15:59;;;;;;;31.75;24.00;;;307.40;2304.00;;;;;;4998957;28;20127;-84
2021/04/03 10:18:25;;;;;;;21.40;18.77;;;307.50;2304.00;;;;;;5015890;28;20029;-83
2021/04/03 10:20:51;;;;;;;28.02;22.65;;;307.30;2304.00;;;;;;4998023;28;20030;-82
2021/04/03 10:23:17;;;;;;;33.38;26.77;;;307.20;2304.00;;;;;;4997111;28;20385;-86
2021/04/03 10:25:47;;;;;;;31.08;23.92;;;282.50;2278.40;;;;;;5015811;28;20059;-84
2021/04/03 10:28:13;;;;;;;33.55;25.10;;;282.50;2278.40;;;;;;4980806;28;20056;-83
2021/04/03 10:30:39;;;;;;;31.95;23.88;;;282.40;2278.40;;;;;;4998273;28;20026;-86
2021/04/03 10:33:05;;;;;;;45.97;30.38;;;282.40;2278.40;;;;;;4997106;28;20041;-85
2021/04/03 10:36:03;;;;;;;50.80;31.80;;;282.40;2278.40;;;;;;4997776;28;20098;-84
2021/04/03 10:42:46;;;;;;;;;;;;;;;;;;;;;
2021/04/03 10:49:50;;;;;;;;;;;;;;;;;;;;;
2021/04/03 10:53:51;;;;;;;17.45;11.88;;;282.20;2278.40;;;;;;4870693;29;20040;-83
2021/04/03 10:56:25;;;;;;;26.15;17.60;;;282.10;2278.40;;;;;;4925763;29;20488;-85
2021/04/03 10:59:41;;;;;;;;;;;;;;;;;;;;;
2021/04/03 11:02:38;;;;;;;19.75;13.45;;;282.10;2278.40;;;;;;4856658;29;20037;-83
2021/04/03 11:05:56;;;;;;;;;;;;;;;;;;;;;
2021/04/03 11:12:42;;;;;;;18.95;13.23;;;281.90;2278.40;;;;;;4935402;29;20079;-85
2021/04/03 11:15:29;;;;;;;19.30;13.38;;;281.90;2278.40;;;;;;4918876;29;20052;-84
2021/04/03 11:18:05;;;;;;;21.02;14.77;;;281.90;2278.40;;;;;;4916290;29;20052;-84
2021/04/03 11:20:31;;;;;;;17.88;11.27;;;281.90;2278.40;;;;;;4916394;29;20040;-83
2021/04/03 11:23:41;;;;;;;19.50;13.98;;;281.80;2278.40;;;;;;4916023;29;20080;-85
2021/04/03 11:26:29;;;;;;;15.05;10.43;;;281.90;2278.40;;;;;;4955422;28;20035;-82
2021/04/03 11:29:01;;;;;;;24.55;16.92;;;281.90;2278.40;;;;;;4970767;28;20089;-83
2021/04/03 11:31:27;;;;;;;25.98;17.33;;;281.90;2278.40;;;;;;4958068;28;20030;-84
2021/04/03 11:33:57;;;;;;;24.67;18.65;;;282.00;2278.40;;;;;;4958162;28;20360;-83
2021/04/03 11:36:25;;;;;;;23.10;16.75;;;282.10;2278.40;;;;;;4975785;28;20031;-84
2021/04/03 11:38:51;;;;;;;15.93;10.98;;;282.10;2278.40;;;;;;4957860;28;20027;-84
2021/04/03 11:42:03;;;;;;;16.33;12.73;;;282.00;2278.40;;;;;;4958127;28;20056;-84
2021/04/03 11:44:06;;;;;;;18.60;12.00;;;282.00;2278.40;;;;;;4968240;28;20105;-85
2021/04/03 11:47:07;;;;;;;15.02;11.07;;;282.10;2278.40;;;;;;4974613;28;20038;-85
2021/04/03 11:50:08;;;;;;;23.15;14.85;;;282.00;2278.40;;;;;;4958767;28;20027;-83
2021/04/03 11:52:52;;;;;;;16.10;10.57;;;282.10;2278.40;;;;;;4961041;28;20073;-83
2021/04/03 11:55:18;;;;;;;21.73;15.00;;;282.10;2278.40;;;;;;4957974;28;20094;-83
2021/04/03 11:57:58;;;;;;;24.77;16.05;;;282.40;2278.40;;;;;;4958785;28;20104;-81
2021/04/03 12:00:58;;;;;;;18.52;13.32;;;282.00;2278.40;;;;;;4957922;28;20023;-85
2021/04/03 12:03:53;;;;;;;16.38;12.57;;;281.90;2278.40;;;;;;4941687;28;20039;-85
2021/04/03 12:06:37;;;;;;;22.83;15.70;;;281.90;2278.40;;;;;;4974591;28;20031;-84
2021/04/03 12:10:21;;;;;;;17.42;12.70;;;281.90;2278.40;;;;;;4956488;28;20039;-85
2021/04/03 12:12:50;;;;;;;14.48;10.63;;;281.90;2278.40;;;;;;4972130;28;20483;-85
2021/04/03 12:15:53;;;;;;;17.00;12.02;;;281.80;2278.40;;;;;;4968577;28;20113;-84
2021/04/03 12:19:26;;;;;;;30.80;22.40;;;281.70;2278.40;;;;;;4960132;28;20030;-83
2021/04/03 12:22:35;;;;;;;;;;;;;;;;;;;;;
2021/04/03 12:26:13;;;;;;;36.00;23.92;;;281.80;2278.40;;;;;;4972705;28;20125;-82
2021/04/03 12:28:44;;;;;;;15.77;10.70;;;281.80;2278.40;;;;;;4989128;28;20487;-85
2021/04/03 12:31:57;;;;;;;17.05;11.48;;;281.80;2278.40;;;;;;4969716;28;20073;-84
2021/04/03 12:38:10;;;;;;;;;;;281.90;2278.40;;;;;;4973007;28;20605;-83
2021/04/03 12:42:06;;;;;;;29.83;19.25;;;281.90;2278.40;;;;;;4956187;28;19950;-83
2021/04/03 12:45:07;;;;;;;19.92;14.80;;;281.90;2278.40;;;;;;4955097;28;20027;-83
2021/04/03 12:48:43;;;;;;;;;;;;;;;;;;;;;
2021/04/03 12:51:55;;;;;;;19.42;14.23;;;282.00;2278.40;;;;;;4934143;29;20086;-83
2021/04/03 12:54:57;;;;;;;;;;;;;;;;;;;;;
2021/04/03 13:01:09;;;;;;;19.75;12.95;;;281.80;2278.40;;;;;;4954490;28;20526;-83
2021/04/03 13:04:31;;;;;;;36.67;25.35;;;281.90;2278.40;;;;;;4988853;28;20092;-80
2021/04/03 13:07:23;;;;;;;38.88;27.92;;;281.60;2278.40;;;;;;4978356;28;20042;-78
2021/04/03 13:09:58;;;;;;;29.50;22.48;;;281.60;2278.40;;;;;;4984216;28;20133;-78
2021/04/03 13:12:25;;;;;;;21.67;14.38;;;281.70;2278.40;;;;;;4995258;28;20030;-79
2021/04/03 13:15:16;;;;;;;26.38;21.45;;;256.90;2252.80;;;;;;4995482;28;20081;-82
2021/04/03 13:17:56;;;;;;;22.80;17.17;;;256.90;2252.80;;;;;;4995070;28;20057;-85
2021/04/03 13:20:55;;;;;;;29.88;21.95;;;256.80;2252.80;;;;;;4995694;28;20095;-80
2021/04/03 13:24:10;;;;;;;31.33;23.55;;;256.70;2252.80;;;;;;4995505;28;20025;-84
2021/04/03 13:26:47;;;;;;;23.85;18.00;;;256.70;2252.80;;;;;;4952649;29;20472;-85
2021/04/03 13:30:00;;;;;;;16.77;14.65;;;256.60;2252.80;;;;;;4928891;29;20514;-87
2021/04/03 13:32:47;;;;;;;24.35;20.05;;;256.70;2252.80;;;;;;4940834;28;20040;-80
2021/04/03 13:35:38;;;;;;;27.20;23.17;;;256.70;2252.80;;;;;;4934056;29;20391;-81
2021/04/03 13:38:25;;;;;;;30.73;21.00;;;256.80;2252.80;;;;;;4940284;29;20040;-81
2021/04/03 13:40:53;;;;;;;32.17;22.02;;;256.70;2252.80;;;;;;4954076;29;20038;-80